sensor_id;sensor_type;location;lat;lon;timestamp;pressure;altitude;pressure_sealevel;temperature;humidity
3132;BME280;62090;52.330;9.104;2023-03-01T00:06:17;102291.78;;;-1.80;77.72
3132;BME280;62090;52.330;9.104;2023-03-01T00:10:22;102253.59;;;-2.29;78.59
3132;BME280;62090;52.330;9.104;2023-03-01T00:43:11;102488.00;;;-1.01;80.35
3132;BME280;62090;52.330;9.104;2023-03-01T00:54:57;102447.09;;;-1.43;81.91
3132;BME280;62090;52.330;9.104;2023-03-01T01:09:27;102580.81;;;-0.48;81.14
3132;BME280;62090;52.330;9.104;2023-03-01T01:16:07;102572.56;;;-0.55;80.65
3132;BME280;62090;52.330;9.104;2023-03-01T01:19:59;102247.94;;;-2.77;81.68
3132;BME280;62090;52.330;9.104;2023-03-01T01:24:20;102399.31;;;-1.87;82.88
3132;BME280;62090;52.330;9.104;2023-03-01T02:50:25;102336.69;;;-2.30;79.21
3132;BME280;62090;52.330;9.104;2023-03-01T02:54:38;102329.13;;;-2.47;80.74
3132;BME280;62090;52.330;9.104;2023-03-01T03:06:54;102532.19;;;-1.25;78.41
3132;BME280;62090;52.330;9.104;2023-03-01T03:10:56;102166.66;;;-3.32;79.64
3132;BME280;62090;52.330;9.104;2023-03-01T03:13:47;102516.28;;;-1.26;79.88
3132;BME280;62090;52.330;9.104;2023-03-01T03:17:19;102339.19;;;-2.30;79.82
3132;BME280;62090;52.330;9.104;2023-03-01T03:20:53;102528.47;;;-1.38;81.15
3132;BME280;62090;52.330;9.104;2023-03-01T03:23:46;102217.72;;;-3.04;80.72
3132;BME280;62090;52.330;9.104;2023-03-01T03:27:02;102558.06;;;-1.34;79.95
3132;BME280;62090;52.330;9.104;2023-03-01T03:34:17;102308.25;;;-2.48;79.50
3132;BME280;62090;52.330;9.104;2023-03-01T03:37:19;102533.03;;;-1.34;78.96
3132;BME280;62090;52.330;9.104;2023-03-01T03:40:19;102433.94;;;-1.75;79.43
3132;BME280;62090;52.330;9.104;2023-03-01T03:43:11;102487.72;;;-1.37;78.80
3132;BME280;62090;52.330;9.104;2023-03-01T03:45:58;102460.19;;;-1.54;77.80
3132;BME280;62090;52.330;9.104;2023-03-01T03:48:58;102322.25;;;-2.41;77.45
3132;BME280;62090;52.330;9.104;2023-03-01T03:52:38;102500.63;;;-1.49;77.90
3132;BME280;62090;52.330;9.104;2023-03-01T04:03:52;102517.03;;;-1.60;78.11
3132;BME280;62090;52.330;9.104;2023-03-01T04:07:12;102412.41;;;-2.14;79.74
3132;BME280;62090;52.330;9.104;2023-03-01T04:10:19;102349.06;;;-2.47;80.49
3132;BME280;62090;52.330;9.104;2023-03-01T04:14:17;102486.50;;;-1.82;80.16
3132;BME280;62090;52.330;9.104;2023-03-01T04:17:03;102496.84;;;-1.70;81.83
3132;BME280;62090;52.330;9.104;2023-03-01T04:20:22;102515.97;;;-1.71;82.00
3132;BME280;62090;52.330;9.104;2023-03-01T04:23:42;102134.00;;;-3.91;80.55
3132;BME280;62090;52.330;9.104;2023-03-01T04:26:31;102316.41;;;-2.66;80.77
3132;BME280;62090;52.330;9.104;2023-03-01T04:29:23;102488.53;;;-1.53;79.50
3132;BME280;62090;52.330;9.104;2023-03-01T04:32:29;102215.44;;;-3.18;79.02
3132;BME280;62090;52.330;9.104;2023-03-01T04:35:57;102317.56;;;-2.63;78.93
3132;BME280;62090;52.330;9.104;2023-03-01T04:38:35;102514.69;;;-1.58;79.27
3132;BME280;62090;52.330;9.104;2023-03-01T04:41:36;102429.28;;;-1.96;78.68
3132;BME280;62090;52.330;9.104;2023-03-01T04:45:05;102252.16;;;-3.09;78.43
3132;BME280;62090;52.330;9.104;2023-03-01T04:48:19;102529.13;;;-1.56;79.47
3132;BME280;62090;52.330;9.104;2023-03-01T04:51:45;102126.50;;;-3.75;78.28
3132;BME280;62090;52.330;9.104;2023-03-01T04:54:42;102527.34;;;-1.57;78.93
3132;BME280;62090;52.330;9.104;2023-03-01T05:01:30;102307.75;;;-2.61;78.48
3132;BME280;62090;52.330;9.104;2023-03-01T05:04:18;102301.16;;;-2.61;78.20
3132;BME280;62090;52.330;9.104;2023-03-01T05:07:01;102498.84;;;-1.50;78.50
3132;BME280;62090;52.330;9.104;2023-03-01T05:09:39;102508.81;;;-1.59;79.41
3132;BME280;62090;52.330;9.104;2023-03-01T05:12:16;102508.91;;;-1.66;79.88
3132;BME280;62090;52.330;9.104;2023-03-01T05:14:47;102492.50;;;-1.80;81.21
3132;BME280;62090;52.330;9.104;2023-03-01T05:17:21;102273.63;;;-3.02;80.64
3132;BME280;62090;52.330;9.104;2023-03-01T05:20:02;102474.38;;;-1.94;81.42
3132;BME280;62090;52.330;9.104;2023-03-01T05:22:38;102519.69;;;-1.83;81.78
3132;BME280;62090;52.330;9.104;2023-03-01T05:25:16;102500.16;;;-1.87;81.99
3132;BME280;62090;52.330;9.104;2023-03-01T05:27:56;102311.88;;;-2.86;82.25
3132;BME280;62090;52.330;9.104;2023-03-01T05:30:31;102494.56;;;-1.84;82.44
3132;BME280;62090;52.330;9.104;2023-03-01T05:33:09;102297.75;;;-2.85;81.72
3132;BME280;62090;52.330;9.104;2023-03-01T05:35:45;102344.81;;;-2.73;82.03
3132;BME280;62090;52.330;9.104;2023-03-01T05:38:20;102333.28;;;-2.64;80.82
3132;BME280;62090;52.330;9.104;2023-03-01T05:44:18;102395.13;;;-2.52;81.70
3132;BME280;62090;52.330;9.104;2023-03-01T06:06:41;102277.03;;;-3.49;83.57
3132;BME280;62090;52.330;9.104;2023-03-01T06:09:11;102407.09;;;-2.66;83.41
3132;BME280;62090;52.330;9.104;2023-03-01T06:11:54;102265.34;;;-3.50;81.71
3132;BME280;62090;52.330;9.104;2023-03-01T06:14:47;102223.31;;;-3.62;81.34
3132;BME280;62090;52.330;9.104;2023-03-01T06:17:17;102284.34;;;-3.19;80.80
3132;BME280;62090;52.330;9.104;2023-03-01T06:19:47;102269.84;;;-3.38;79.88
3132;BME280;62090;52.330;9.104;2023-03-01T06:22:20;102298.47;;;-3.11;79.51
3132;BME280;62090;52.330;9.104;2023-03-01T06:24:50;102493.88;;;-1.99;79.10
3132;BME280;62090;52.330;9.104;2023-03-01T06:27:20;102409.72;;;-2.64;78.51
3132;BME280;62090;52.330;9.104;2023-03-01T06:29:51;102436.09;;;-2.35;77.99
3132;BME280;62090;52.330;9.104;2023-03-01T06:32:34;102503.06;;;-1.91;77.69
3132;BME280;62090;52.330;9.104;2023-03-01T06:37:02;102524.38;;;-2.10;78.36
3132;BME280;62090;52.330;9.104;2023-03-01T06:41:16;102322.28;;;-3.06;79.22
3132;BME280;62090;52.330;9.104;2023-03-01T07:06:09;102480.94;;;-0.36;70.94
3132;BME280;62090;52.330;9.104;2023-03-01T07:08:39;102480.22;;;-0.87;73.83
3132;BME280;62090;52.330;9.104;2023-03-01T07:11:15;102318.78;;;-1.85;74.81
3132;BME280;62090;52.330;9.104;2023-03-01T07:13:45;102359.56;;;-1.68;75.63
3132;BME280;62090;52.330;9.104;2023-03-01T07:16:17;102378.81;;;-1.67;76.34
3132;BME280;62090;52.330;9.104;2023-03-01T07:22:35;102478.72;;;-1.02;78.20
3132;BME280;62090;52.330;9.104;2023-03-01T07:47:44;102483.44;;;-0.79;84.57
3132;BME280;62090;52.330;9.104;2023-03-01T07:53:10;102385.13;;;-1.12;85.85
3132;BME280;62090;52.330;9.104;2023-03-01T07:55:40;102458.13;;;-0.56;86.54
3132;BME280;62090;52.330;9.104;2023-03-01T07:58:10;102392.34;;;-0.81;86.13
3132;BME280;62090;52.330;9.104;2023-03-01T08:00:40;102421.03;;;-0.60;86.40
3132;BME280;62090;52.330;9.104;2023-03-01T08:03:12;102455.16;;;-0.18;86.20
3132;BME280;62090;52.330;9.104;2023-03-01T08:05:40;102449.81;;;-0.04;86.29
3132;BME280;62090;52.330;9.104;2023-03-01T08:08:10;102447.41;;;0.15;86.04
3132;BME280;62090;52.330;9.104;2023-03-01T08:10:40;102383.19;;;-0.10;86.01
3132;BME280;62090;52.330;9.104;2023-03-01T08:13:11;102393.06;;;-0.03;85.26
3132;BME280;62090;52.330;9.104;2023-03-01T08:38:33;102429.88;;;0.42;85.52
3132;BME280;62090;52.330;9.104;2023-03-01T10:00:54;102219.75;;;2.25;69.92
3132;BME280;62090;52.330;9.104;2023-03-01T10:04:37;102242.25;;;2.23;70.37
3132;BME280;62090;52.330;9.104;2023-03-01T10:08:02;102399.78;;;3.34;70.90
3132;BME280;62090;52.330;9.104;2023-03-01T10:10:37;102331.25;;;3.06;70.75
3132;BME280;62090;52.330;9.104;2023-03-01T10:13:15;102379.59;;;3.44;70.20
3132;BME280;62090;52.330;9.104;2023-03-01T10:15:53;102384.72;;;3.56;69.87
3132;BME280;62090;52.330;9.104;2023-03-01T10:18:26;102381.94;;;3.63;69.88
3132;BME280;62090;52.330;9.104;2023-03-01T10:20:58;102402.25;;;3.86;70.09
3132;BME280;62090;52.330;9.104;2023-03-01T10:23:31;102389.28;;;3.81;69.24
3132;BME280;62090;52.330;9.104;2023-03-01T10:26:09;102369.47;;;3.86;69.48
3132;BME280;62090;52.330;9.104;2023-03-01T10:28:56;102378.50;;;3.94;69.71
3132;BME280;62090;52.330;9.104;2023-03-01T10:31:37;102400.00;;;4.11;68.38
3132;BME280;62090;52.330;9.104;2023-03-01T10:34:14;102347.78;;;3.88;68.14
3132;BME280;62090;52.330;9.104;2023-03-01T10:36:48;102404.09;;;4.20;66.32
3132;BME280;62090;52.330;9.104;2023-03-01T10:39:20;102376.69;;;4.03;67.21
3132;BME280;62090;52.330;9.104;2023-03-01T10:41:58;102361.00;;;3.96;67.80
3132;BME280;62090;52.330;9.104;2023-03-01T10:44:43;102343.56;;;3.99;67.68
3132;BME280;62090;52.330;9.104;2023-03-01T10:47:18;102356.75;;;4.28;67.71
3132;BME280;62090;52.330;9.104;2023-03-01T10:49:55;102395.88;;;4.56;67.79
3132;BME280;62090;52.330;9.104;2023-03-01T10:52:29;102389.34;;;4.70;67.41
3132;BME280;62090;52.330;9.104;2023-03-01T10:55:02;102381.41;;;4.65;66.62
3132;BME280;62090;52.330;9.104;2023-03-01T10:57:36;102389.44;;;4.72;66.70
3132;BME280;62090;52.330;9.104;2023-03-01T11:00:21;102350.00;;;4.50;66.01
3132;BME280;62090;52.330;9.104;2023-03-01T11:03:13;102377.09;;;4.86;65.83
3132;BME280;62090;52.330;9.104;2023-03-01T11:05:52;102347.28;;;4.59;66.25
3132;BME280;62090;52.330;9.104;2023-03-01T11:08:39;102384.34;;;4.93;66.13
3132;BME280;62090;52.330;9.104;2023-03-01T11:11:30;102386.22;;;4.96;65.18
3132;BME280;62090;52.330;9.104;2023-03-01T11:14:03;102385.00;;;5.02;65.00
3132;BME280;62090;52.330;9.104;2023-03-01T11:16:59;102225.94;;;4.11;63.49
3132;BME280;62090;52.330;9.104;2023-03-01T11:19:32;102385.44;;;5.08;62.79
3132;BME280;62090;52.330;9.104;2023-03-01T11:22:05;102326.34;;;4.83;64.00
3132;BME280;62090;52.330;9.104;2023-03-01T11:24:39;102353.41;;;5.07;64.16
3132;BME280;62090;52.330;9.104;2023-03-01T11:27:18;102371.84;;;5.18;63.27
3132;BME280;62090;52.330;9.104;2023-03-01T11:29:52;102367.25;;;5.13;62.63
3132;BME280;62090;52.330;9.104;2023-03-01T11:32:26;102320.41;;;4.83;63.60
3132;BME280;62090;52.330;9.104;2023-03-01T11:35:03;102348.75;;;5.14;62.55
3132;BME280;62090;52.330;9.104;2023-03-01T11:37:41;102370.19;;;5.30;62.70
3132;BME280;62090;52.330;9.104;2023-03-01T11:40:15;102304.63;;;4.97;61.52
3132;BME280;62090;52.330;9.104;2023-03-01T11:42:54;102354.56;;;5.36;62.06
3132;BME280;62090;52.330;9.104;2023-03-01T11:45:28;102352.69;;;5.45;62.07
3132;BME280;62090;52.330;9.104;2023-03-01T11:48:28;102355.47;;;5.48;61.51
3132;BME280;62090;52.330;9.104;2023-03-01T11:51:23;102337.56;;;5.22;63.24
3132;BME280;62090;52.330;9.104;2023-03-01T11:54:02;102328.09;;;5.31;63.49
3132;BME280;62090;52.330;9.104;2023-03-01T11:56:35;102338.84;;;5.40;64.38
3132;BME280;62090;52.330;9.104;2023-03-01T11:59:37;102324.97;;;5.58;63.97
3132;BME280;62090;52.330;9.104;2023-03-01T12:05:49;102335.25;;;5.84;62.98
3132;BME280;62090;52.330;9.104;2023-03-01T12:08:32;102319.41;;;5.87;61.74
3132;BME280;62090;52.330;9.104;2023-03-01T12:11:11;102313.72;;;5.89;62.20
3132;BME280;62090;52.330;9.104;2023-03-01T12:13:59;102329.13;;;6.17;60.98
3132;BME280;62090;52.330;9.104;2023-03-01T12:16:53;102322.78;;;6.24;60.77
3132;BME280;62090;52.330;9.104;2023-03-01T12:19:45;102312.78;;;6.25;59.81
3132;BME280;62090;52.330;9.104;2023-03-01T12:22:29;102297.63;;;6.14;61.21
3132;BME280;62090;52.330;9.104;2023-03-01T12:25:23;102304.09;;;6.22;60.35
3132;BME280;62090;52.330;9.104;2023-03-01T12:28:07;102313.06;;;6.30;59.60
3132;BME280;62090;52.330;9.104;2023-03-01T12:30:55;102303.41;;;6.24;60.12
3132;BME280;62090;52.330;9.104;2023-03-01T12:33:37;102277.50;;;6.15;60.03
3132;BME280;62090;52.330;9.104;2023-03-01T12:36:26;102287.09;;;6.32;59.77
3132;BME280;62090;52.330;9.104;2023-03-01T12:39:12;102282.22;;;6.35;61.05
3132;BME280;62090;52.330;9.104;2023-03-01T12:41:59;102281.75;;;6.41;59.33
3132;BME280;62090;52.330;9.104;2023-03-01T12:44:51;102263.16;;;6.41;58.74
3132;BME280;62090;52.330;9.104;2023-03-01T12:47:38;102263.25;;;6.42;57.98
3132;BME280;62090;52.330;9.104;2023-03-01T12:50:14;102255.47;;;6.39;59.20
3132;BME280;62090;52.330;9.104;2023-03-01T12:52:50;102261.13;;;6.61;57.26
3132;BME280;62090;52.330;9.104;2023-03-01T12:55:27;102241.94;;;6.52;57.86
3132;BME280;62090;52.330;9.104;2023-03-01T12:58:07;102203.97;;;6.39;56.70
3132;BME280;62090;52.330;9.104;2023-03-01T13:00:55;102215.34;;;6.45;56.03
3132;BME280;62090;52.330;9.104;2023-03-01T13:03:32;102242.44;;;6.59;55.90
3132;BME280;62090;52.330;9.104;2023-03-01T13:06:11;102223.72;;;6.44;56.32
3132;BME280;62090;52.330;9.104;2023-03-01T13:08:49;102237.38;;;6.72;56.68
3132;BME280;62090;52.330;9.104;2023-03-01T13:11:23;102197.06;;;6.49;53.93
3132;BME280;62090;52.330;9.104;2023-03-01T13:17:30;102226.38;;;6.85;54.91
3132;BME280;62090;52.330;9.104;2023-03-01T13:20:01;102190.53;;;6.66;54.26
3132;BME280;62090;52.330;9.104;2023-03-01T13:22:32;102211.06;;;6.84;53.76
3132;BME280;62090;52.330;9.104;2023-03-01T13:25:20;102213.19;;;6.91;54.09
3132;BME280;62090;52.330;9.104;2023-03-01T13:30:57;102220.00;;;7.05;52.30
3132;BME280;62090;52.330;9.104;2023-03-01T13:33:45;102205.00;;;7.08;52.94
3132;BME280;62090;52.330;9.104;2023-03-01T13:36:46;102203.63;;;7.13;52.36
3132;BME280;62090;52.330;9.104;2023-03-01T13:39:28;102191.00;;;7.28;56.58
3132;BME280;62090;52.330;9.104;2023-03-01T13:41:59;102185.03;;;7.27;52.88
3132;BME280;62090;52.330;9.104;2023-03-01T13:44:32;102149.47;;;6.98;53.11
3132;BME280;62090;52.330;9.104;2023-03-01T13:47:14;102198.31;;;7.23;52.37
3132;BME280;62090;52.330;9.104;2023-03-01T13:49:53;102175.63;;;7.11;53.06
3132;BME280;62090;52.330;9.104;2023-03-01T13:52:34;102193.44;;;7.26;52.27
3132;BME280;62090;52.330;9.104;2023-03-01T13:55:17;102158.56;;;7.09;52.26
3132;BME280;62090;52.330;9.104;2023-03-01T13:57:49;102139.00;;;7.06;53.42
3132;BME280;62090;52.330;9.104;2023-03-01T14:00:29;102130.78;;;7.10;52.50
3132;BME280;62090;52.330;9.104;2023-03-01T14:03:01;102158.53;;;7.22;51.72
3132;BME280;62090;52.330;9.104;2023-03-01T14:05:35;102189.88;;;7.37;52.14
3132;BME280;62090;52.330;9.104;2023-03-01T14:08:18;102191.81;;;7.41;51.80
3132;BME280;62090;52.330;9.104;2023-03-01T14:10:58;102103.47;;;6.92;52.17
3132;BME280;62090;52.330;9.104;2023-03-01T14:13:48;102107.66;;;6.91;52.36
3132;BME280;62090;52.330;9.104;2023-03-01T14:16:31;102179.56;;;7.34;52.69
3132;BME280;62090;52.330;9.104;2023-03-01T14:19:14;102156.09;;;7.24;52.15
3132;BME280;62090;52.330;9.104;2023-03-01T14:22:06;102160.47;;;7.26;51.96
3132;BME280;62090;52.330;9.104;2023-03-01T14:24:46;102184.16;;;7.54;51.00
3132;BME280;62090;52.330;9.104;2023-03-01T14:27:17;102158.56;;;7.37;50.87
3132;BME280;62090;52.330;9.104;2023-03-01T14:29:55;102172.88;;;7.49;52.25
3132;BME280;62090;52.330;9.104;2023-03-01T14:32:26;102102.59;;;7.19;52.32
3132;BME280;62090;52.330;9.104;2023-03-01T14:34:57;102149.97;;;7.62;51.05
3132;BME280;62090;52.330;9.104;2023-03-01T14:37:32;102157.31;;;7.58;50.78
3132;BME280;62090;52.330;9.104;2023-03-01T14:40:04;102126.91;;;7.30;49.85
3132;BME280;62090;52.330;9.104;2023-03-01T14:42:35;102148.03;;;7.44;49.90
3132;BME280;62090;52.330;9.104;2023-03-01T14:45:09;102139.53;;;7.43;49.67
3132;BME280;62090;52.330;9.104;2023-03-01T14:47:43;102132.56;;;8.27;48.04
3132;BME280;62090;52.330;9.104;2023-03-01T14:50:21;102124.34;;;7.73;48.78
3132;BME280;62090;52.330;9.104;2023-03-01T14:52:57;102139.41;;;7.70;49.24
3132;BME280;62090;52.330;9.104;2023-03-01T14:55:30;102117.50;;;7.42;49.67
3132;BME280;62090;52.330;9.104;2023-03-01T14:58:03;102130.16;;;7.42;49.64
3132;BME280;62090;52.330;9.104;2023-03-01T15:00:34;102113.94;;;7.26;50.28
3132;BME280;62090;52.330;9.104;2023-03-01T15:03:08;102124.13;;;7.40;50.44
3132;BME280;62090;52.330;9.104;2023-03-01T15:05:42;102124.69;;;7.49;50.42
3132;BME280;62090;52.330;9.104;2023-03-01T15:08:18;102121.38;;;7.50;49.79
3132;BME280;62090;52.330;9.104;2023-03-01T15:10:59;102095.28;;;7.38;48.51
3132;BME280;62090;52.330;9.104;2023-03-01T15:13:34;102064.22;;;7.13;49.76
3132;BME280;62090;52.330;9.104;2023-03-01T15:16:09;102054.84;;;7.12;50.72
3132;BME280;62090;52.330;9.104;2023-03-01T15:18:46;102057.19;;;7.09;50.23
3132;BME280;62090;52.330;9.104;2023-03-01T15:21:22;102043.41;;;7.18;51.74
3132;BME280;62090;52.330;9.104;2023-03-01T15:24:05;102093.88;;;7.43;50.63
3132;BME280;62090;52.330;9.104;2023-03-01T15:26:41;102107.69;;;7.34;50.56
3132;BME280;62090;52.330;9.104;2023-03-01T15:29:16;102111.28;;;7.37;49.99
3132;BME280;62090;52.330;9.104;2023-03-01T15:31:54;102083.53;;;7.26;49.79
3132;BME280;62090;52.330;9.104;2023-03-01T15:34:27;102084.31;;;7.25;49.43
3132;BME280;62090;52.330;9.104;2023-03-01T15:36:58;102089.47;;;7.26;50.55
3132;BME280;62090;52.330;9.104;2023-03-01T15:39:39;102090.00;;;7.35;49.71
3132;BME280;62090;52.330;9.104;2023-03-01T15:42:12;102098.44;;;7.34;50.34
3132;BME280;62090;52.330;9.104;2023-03-01T15:44:43;102088.81;;;7.29;50.52
3132;BME280;62090;52.330;9.104;2023-03-01T15:47:25;102082.84;;;7.28;50.70
3132;BME280;62090;52.330;9.104;2023-03-01T15:49:58;102062.34;;;7.10;51.17
3132;BME280;62090;52.330;9.104;2023-03-01T15:52:34;102068.66;;;7.17;51.06
3132;BME280;62090;52.330;9.104;2023-03-01T15:55:16;102026.22;;;7.00;51.11
3132;BME280;62090;52.330;9.104;2023-03-01T15:57:47;102045.47;;;7.11;50.91
3132;BME280;62090;52.330;9.104;2023-03-01T16:00:18;102083.78;;;7.30;51.34
3132;BME280;62090;52.330;9.104;2023-03-01T16:02:48;102080.69;;;7.34;51.17
3132;BME280;62090;52.330;9.104;2023-03-01T16:05:20;102072.72;;;7.28;51.07
3132;BME280;62090;52.330;9.104;2023-03-01T16:07:51;102074.78;;;7.20;51.77
3132;BME280;62090;52.330;9.104;2023-03-01T16:10:24;102064.28;;;7.14;51.94
3132;BME280;62090;52.330;9.104;2023-03-01T16:12:54;102068.66;;;7.17;52.42
3132;BME280;62090;52.330;9.104;2023-03-01T16:15:26;102068.31;;;7.26;52.45
3132;BME280;62090;52.330;9.104;2023-03-01T16:17:59;102073.03;;;7.19;52.83
3132;BME280;62090;52.330;9.104;2023-03-01T16:20:29;102071.88;;;7.14;52.69
3132;BME280;62090;52.330;9.104;2023-03-01T16:23:00;102063.59;;;7.17;52.80
3132;BME280;62090;52.330;9.104;2023-03-01T16:25:34;102045.00;;;7.03;52.60
3132;BME280;62090;52.330;9.104;2023-03-01T16:28:05;102065.16;;;7.15;52.96
3132;BME280;62090;52.330;9.104;2023-03-01T16:30:36;102052.72;;;7.05;53.41
3132;BME280;62090;52.330;9.104;2023-03-01T16:33:07;102040.50;;;6.98;53.61
3132;BME280;62090;52.330;9.104;2023-03-01T16:35:57;102013.06;;;6.77;54.10
3132;BME280;62090;52.330;9.104;2023-03-01T16:38:31;102054.31;;;7.03;53.69
3132;BME280;62090;52.330;9.104;2023-03-01T16:41:04;102041.34;;;6.98;53.48
3132;BME280;62090;52.330;9.104;2023-03-01T16:43:34;102071.56;;;6.95;53.45
3132;BME280;62090;52.330;9.104;2023-03-01T16:46:10;102069.31;;;7.00;53.67
3132;BME280;62090;52.330;9.104;2023-03-01T16:48:40;102073.13;;;6.93;53.60
3132;BME280;62090;52.330;9.104;2023-03-01T16:51:10;102056.34;;;6.81;53.99
3132;BME280;62090;52.330;9.104;2023-03-01T16:53:40;102069.28;;;6.85;53.63
3132;BME280;62090;52.330;9.104;2023-03-01T16:56:16;102067.06;;;6.76;53.70
3132;BME280;62090;52.330;9.104;2023-03-01T16:58:47;102020.03;;;6.39;53.61
3132;BME280;62090;52.330;9.104;2023-03-01T17:01:19;102064.28;;;6.59;53.41
3132;BME280;62090;52.330;9.104;2023-03-01T17:03:50;101947.47;;;5.85;53.25
3132;BME280;62090;52.330;9.104;2023-03-01T17:06:20;102060.22;;;6.48;53.63
3132;BME280;62090;52.330;9.104;2023-03-01T17:08:51;102075.88;;;6.55;53.50
3132;BME280;62090;52.330;9.104;2023-03-01T17:11:24;102030.91;;;6.25;53.02
3132;BME280;62090;52.330;9.104;2023-03-01T17:13:54;102025.91;;;6.12;53.21
3132;BME280;62090;52.330;9.104;2023-03-01T17:16:24;101997.88;;;5.96;53.38
3132;BME280;62090;52.330;9.104;2023-03-01T17:18:54;102074.63;;;6.35;53.86
3132;BME280;62090;52.330;9.104;2023-03-01T17:21:24;102069.00;;;6.26;53.93
3132;BME280;62090;52.330;9.104;2023-03-01T17:23:56;102038.94;;;5.91;54.03
3132;BME280;62090;52.330;9.104;2023-03-01T17:26:29;102055.09;;;6.07;54.37
3132;BME280;62090;52.330;9.104;2023-03-01T17:28:58;102042.53;;;5.95;54.36
3132;BME280;62090;52.330;9.104;2023-03-01T17:31:30;101942.88;;;5.27;54.38
3132;BME280;62090;52.330;9.104;2023-03-01T17:34:00;102083.81;;;6.07;54.66
3132;BME280;62090;52.330;9.104;2023-03-01T17:36:30;102034.91;;;5.69;54.75
3132;BME280;62090;52.330;9.104;2023-03-01T17:39:07;102011.63;;;5.48;54.82
3132;BME280;62090;52.330;9.104;2023-03-01T17:41:39;102091.66;;;5.99;54.62
3132;BME280;62090;52.330;9.104;2023-03-01T17:44:09;101996.91;;;5.29;54.65
3132;BME280;62090;52.330;9.104;2023-03-01T17:46:39;102020.28;;;5.38;54.69
3132;BME280;62090;52.330;9.104;2023-03-01T17:49:09;102075.19;;;5.66;55.40
3132;BME280;62090;52.330;9.104;2023-03-01T17:51:39;102067.66;;;5.54;55.45
3132;BME280;62090;52.330;9.104;2023-03-01T17:54:10;102034.75;;;5.28;55.86
3132;BME280;62090;52.330;9.104;2023-03-01T17:56:42;102030.97;;;5.09;56.19
3132;BME280;62090;52.330;9.104;2023-03-01T17:59:12;101821.28;;;3.71;57.81
3132;BME280;62090;52.330;9.104;2023-03-01T18:01:43;102049.44;;;4.84;58.26
3132;BME280;62090;52.330;9.104;2023-03-01T18:04:13;102116.31;;;5.14;58.96
3132;BME280;62090;52.330;9.104;2023-03-01T18:06:44;102105.13;;;5.10;59.39
3132;BME280;62090;52.330;9.104;2023-03-01T18:09:14;102050.75;;;4.79;58.91
3132;BME280;62090;52.330;9.104;2023-03-01T18:11:46;102113.78;;;5.14;58.71
3132;BME280;62090;52.330;9.104;2023-03-01T18:14:16;102085.84;;;4.87;59.05
3132;BME280;62090;52.330;9.104;2023-03-01T18:16:46;102060.09;;;4.80;58.61
3132;BME280;62090;52.330;9.104;2023-03-01T18:19:16;102066.09;;;4.82;58.89
3132;BME280;62090;52.330;9.104;2023-03-01T18:21:47;102086.41;;;4.95;58.97
3132;BME280;62090;52.330;9.104;2023-03-01T18:24:16;101956.97;;;4.24;58.71
3132;BME280;62090;52.330;9.104;2023-03-01T18:26:49;102042.13;;;4.75;58.86
3132;BME280;62090;52.330;9.104;2023-03-01T18:29:20;101989.31;;;4.42;59.25
3132;BME280;62090;52.330;9.104;2023-03-01T18:34:58;101974.78;;;4.03;59.73
3132;BME280;62090;52.330;9.104;2023-03-01T18:37:40;101947.19;;;3.81;59.84
3132;BME280;62090;52.330;9.104;2023-03-01T18:40:11;101889.81;;;3.54;60.18
3132;BME280;62090;52.330;9.104;2023-03-01T18:42:44;102095.28;;;4.65;60.55
3132;BME280;62090;52.330;9.104;2023-03-01T18:45:23;101927.94;;;3.47;60.54
3132;BME280;62090;52.330;9.104;2023-03-01T18:47:53;101894.06;;;3.08;62.15
3132;BME280;62090;52.330;9.104;2023-03-01T18:50:23;102093.91;;;4.22;62.30
3132;BME280;62090;52.330;9.104;2023-03-01T18:52:53;102052.88;;;3.90;62.63
3132;BME280;62090;52.330;9.104;2023-03-01T18:55:23;102005.06;;;3.56;62.40
3132;BME280;62090;52.330;9.104;2023-03-01T18:57:56;102068.44;;;3.84;62.59
3132;BME280;62090;52.330;9.104;2023-03-01T19:00:26;102089.47;;;3.73;63.14
3132;BME280;62090;52.330;9.104;2023-03-01T19:02:55;102072.22;;;3.56;63.35
3132;BME280;62090;52.330;9.104;2023-03-01T19:05:27;102044.47;;;3.32;63.74
3132;BME280;62090;52.330;9.104;2023-03-01T19:07:56;102064.84;;;3.35;64.05
3132;BME280;62090;52.330;9.104;2023-03-01T19:10:26;102088.53;;;3.49;64.13
3132;BME280;62090;52.330;9.104;2023-03-01T19:13:00;102110.03;;;3.56;64.60
3132;BME280;62090;52.330;9.104;2023-03-01T19:15:29;102067.22;;;3.22;65.35
3132;BME280;62090;52.330;9.104;2023-03-01T19:17:59;102110.88;;;3.45;65.20
3132;BME280;62090;52.330;9.104;2023-03-01T19:20:30;102104.94;;;3.44;65.76
3132;BME280;62090;52.330;9.104;2023-03-01T19:22:59;102107.91;;;3.50;65.67
3132;BME280;62090;52.330;9.104;2023-03-01T19:25:29;102107.03;;;3.50;65.48
3132;BME280;62090;52.330;9.104;2023-03-01T19:28:01;102103.56;;;3.48;65.65
3132;BME280;62090;52.330;9.104;2023-03-01T19:30:31;102092.63;;;3.25;65.85
3132;BME280;62090;52.330;9.104;2023-03-01T19:33:01;102086.03;;;3.16;65.89
3132;BME280;62090;52.330;9.104;2023-03-01T19:35:33;102118.91;;;3.29;66.04
3132;BME280;62090;52.330;9.104;2023-03-01T19:38:03;102120.41;;;3.15;66.04
3132;BME280;62090;52.330;9.104;2023-03-01T19:40:34;102078.22;;;2.91;66.29
3132;BME280;62090;52.330;9.104;2023-03-01T19:43:07;102104.66;;;2.96;67.00
3132;BME280;62090;52.330;9.104;2023-03-01T19:45:37;102076.84;;;2.73;67.16
3132;BME280;62090;52.330;9.104;2023-03-01T19:48:07;102044.34;;;2.54;67.30
3132;BME280;62090;52.330;9.104;2023-03-01T19:50:36;102089.16;;;2.80;67.66
3132;BME280;62090;52.330;9.104;2023-03-01T19:57:05;101949.97;;;1.94;68.14
3132;BME280;62090;52.330;9.104;2023-03-01T19:59:51;101956.09;;;1.97;67.89
3132;BME280;62090;52.330;9.104;2023-03-01T20:02:30;101946.03;;;1.97;67.73
3132;BME280;62090;52.330;9.104;2023-03-01T20:05:12;101932.09;;;2.01;66.85
3132;BME280;62090;52.330;9.104;2023-03-01T20:10:52;101925.97;;;1.87;66.80
3132;BME280;62090;52.330;9.104;2023-03-01T20:13:27;102140.75;;;3.07;66.84
3132;BME280;62090;52.330;9.104;2023-03-01T20:16:05;102109.31;;;2.91;67.01
3132;BME280;62090;52.330;9.104;2023-03-01T20:18:37;101884.53;;;1.50;67.35
3132;BME280;62090;52.330;9.104;2023-03-01T20:21:08;101990.09;;;2.14;67.76
3132;BME280;62090;52.330;9.104;2023-03-01T20:24:15;101812.25;;;1.04;67.22
